createdAt,value
2019-05-10T00:00:46.257Z,51.30
2019-05-10T00:03:32.543Z,51.10
2019-05-10T00:06:18.879Z,51.30
2019-05-10T00:08:47.236Z,51.60
2019-05-10T00:11:19.787Z,51.50
2019-05-10T00:13:55.823Z,51.60
2019-05-10T00:16:26.046Z,51.30
2019-05-10T00:18:55.010Z,51.10
2019-05-10T00:21:23.711Z,51.20
2019-05-10T00:23:52.712Z,51.00
2019-05-10T00:26:21.385Z,50.60
2019-05-10T00:28:50.118Z,50.60
2019-05-10T00:31:18.802Z,50.50
2019-05-10T00:33:47.482Z,50.50
2019-05-10T00:36:16.181Z,50.60
2019-05-10T00:38:44.858Z,50.40
2019-05-10T00:41:13.623Z,50.50
2019-05-10T00:43:42.568Z,50.50
2019-05-10T00:46:11.286Z,50.80
2019-05-10T00:48:40.076Z,50.90
2019-05-10T00:51:08.794Z,50.90
2019-05-10T00:53:37.430Z,50.80
2019-05-10T00:56:06.320Z,51.00
2019-05-10T00:58:34.992Z,50.70
2019-05-10T01:01:03.737Z,50.70
2019-05-10T01:03:32.445Z,50.60
2019-05-10T01:06:01.107Z,50.60
2019-05-10T01:08:29.792Z,50.80
2019-05-10T01:10:58.476Z,51.30
2019-05-10T01:13:27.142Z,50.50
2019-05-10T01:15:55.800Z,50.20
2019-05-10T01:18:24.506Z,50.50
2019-05-10T01:20:53.194Z,50.40
2019-05-10T01:23:21.894Z,50.60
2019-05-10T01:25:50.573Z,50.50
2019-05-10T01:28:19.241Z,50.80
2019-05-10T01:30:48.267Z,50.90
2019-05-10T01:33:16.949Z,50.90
2019-05-10T01:35:45.621Z,50.80
2019-05-10T01:38:14.440Z,51.10
2019-05-10T01:40:43.084Z,51.50
2019-05-10T01:43:11.768Z,51.40
2019-05-10T01:45:40.447Z,51.60
2019-05-10T01:48:09.129Z,51.60
2019-05-10T01:50:37.919Z,51.60
2019-05-10T01:53:06.626Z,51.50
2019-05-10T01:55:50.900Z,51.60
2019-05-10T01:58:05.874Z,51.60
2019-05-10T02:00:34.563Z,51.70
2019-05-10T02:03:03.242Z,52.40
2019-05-10T02:05:31.906Z,51.80
2019-05-10T02:08:00.626Z,51.70
2019-05-10T02:10:29.274Z,51.80
2019-05-10T02:12:57.987Z,51.50
2019-05-10T02:15:26.649Z,51.50
2019-05-10T02:17:55.373Z,51.50
2019-05-10T02:20:24.289Z,51.60
2019-05-10T02:22:52.948Z,51.60
2019-05-10T02:25:21.669Z,51.60
2019-05-10T02:27:50.398Z,51.50
2019-05-10T02:30:19.511Z,51.60
2019-05-10T02:32:48.323Z,51.40
2019-05-10T02:35:17.023Z,51.40
2019-05-10T02:37:45.728Z,52.20
2019-05-10T02:40:14.917Z,52.10
2019-05-10T02:42:43.907Z,51.70
2019-05-10T02:45:13.095Z,51.60
2019-05-10T02:47:41.787Z,51.30
2019-05-10T02:50:10.830Z,51.50
2019-05-10T02:52:39.500Z,51.30
2019-05-10T02:55:08.415Z,51.20
2019-05-10T02:57:37.782Z,51.20
2019-05-10T03:00:07.857Z,51.20
2019-05-10T03:02:38.368Z,51.10
2019-05-10T03:05:07.665Z,51.10
2019-05-10T03:07:38.505Z,51.30
2019-05-10T03:10:12.660Z,51.10
2019-05-10T03:12:42.050Z,51.40
2019-05-10T03:15:14.718Z,51.10
2019-05-10T03:17:43.426Z,51.50
2019-05-10T03:20:12.635Z,51.30
2019-05-10T03:22:44.789Z,51.10
2019-05-10T03:25:16.279Z,51.10
2019-05-10T03:27:44.955Z,51.20
2019-05-10T03:30:14.005Z,51.00
2019-05-10T03:32:43.373Z,51.10
2019-05-10T03:35:12.207Z,51.30
2019-05-10T03:37:40.991Z,51.20
2019-05-10T03:40:10.114Z,51.30
2019-05-10T03:42:38.771Z,51.20
2019-05-10T03:45:08.155Z,51.00
2019-05-10T03:47:37.264Z,51.10
2019-05-10T03:50:07.741Z,51.20
2019-05-10T03:52:36.539Z,51.20
2019-05-10T03:55:08.409Z,51.30
2019-05-10T03:57:37.073Z,51.10
2019-05-10T04:00:07.840Z,51.20
2019-05-10T04:02:36.513Z,51.20
2019-05-10T04:05:07.448Z,51.40
2019-05-10T04:07:36.236Z,51.10
2019-05-10T04:10:06.549Z,51.20
2019-05-10T04:12:35.239Z,51.20
2019-05-10T04:15:06.118Z,51.80
2019-05-10T04:17:34.809Z,51.20
2019-05-10T04:20:05.285Z,51.30
2019-05-10T04:22:33.993Z,51.50
2019-05-10T04:25:04.072Z,51.70
2019-05-10T04:27:33.282Z,51.70
2019-05-10T04:30:02.308Z,51.80
2019-05-10T04:32:31.077Z,52.00
2019-05-10T04:34:59.744Z,51.90
2019-05-10T04:37:28.438Z,52.00
2019-05-10T04:39:57.118Z,51.80
2019-05-10T04:42:25.996Z,52.60
2019-05-10T04:44:55.060Z,52.70
2019-05-10T04:47:23.813Z,52.10
2019-05-10T04:49:52.678Z,52.10
2019-05-10T04:52:21.408Z,52.00
2019-05-10T04:54:50.094Z,52.10
2019-05-10T04:57:18.843Z,51.90
2019-05-10T04:59:47.548Z,52.20
2019-05-10T05:02:21.314Z,52.20
2019-05-10T05:04:47.018Z,52.40
2019-05-10T05:07:15.700Z,52.40
2019-05-10T05:09:44.426Z,52.50
2019-05-10T05:12:13.103Z,52.30
2019-05-10T05:14:41.755Z,52.70
2019-05-10T05:17:10.732Z,52.40
2019-05-10T05:19:40.924Z,52.50
2019-05-10T05:22:09.947Z,52.40
2019-05-10T05:24:38.759Z,52.00
2019-05-10T05:27:07.427Z,52.30
2019-05-10T05:29:37.188Z,52.10
2019-05-10T05:32:05.888Z,52.50
2019-05-10T05:34:34.599Z,52.60
2019-05-10T05:37:03.293Z,52.80
2019-05-10T05:39:31.980Z,52.90
2019-05-10T05:42:00.687Z,53.20
2019-05-10T05:44:29.418Z,53.50
2019-05-10T05:46:58.377Z,53.40
2019-05-10T05:49:27.108Z,53.40
2019-05-10T05:51:55.800Z,53.40
2019-05-10T05:54:24.491Z,53.50
2019-05-10T05:56:53.354Z,53.70
2019-05-10T05:59:25.931Z,53.80
2019-05-10T06:01:52.736Z,53.60
2019-05-10T06:04:21.554Z,53.70
2019-05-10T06:06:53.731Z,53.70
2019-05-10T06:09:20.992Z,53.90
2019-05-10T06:11:50.042Z,53.70
2019-05-10T06:14:18.870Z,53.50
2019-05-10T06:16:51.137Z,53.70
2019-05-10T06:19:19.864Z,53.80
2019-05-10T06:21:48.710Z,54.20
2019-05-10T06:24:17.516Z,54.40
2019-05-10T06:26:46.194Z,54.00
2019-05-10T06:29:17.686Z,54.10
2019-05-10T06:31:47.114Z,54.30
2019-05-10T06:34:15.806Z,54.30
2019-05-10T06:36:44.547Z,54.10
2019-05-10T06:39:13.231Z,53.80
2019-05-10T06:41:41.930Z,54.00
2019-05-10T06:44:10.685Z,54.20
2019-05-10T06:46:39.415Z,54.00
2019-05-10T06:49:10.712Z,54.00
2019-05-10T06:51:42.883Z,54.20
2019-05-10T06:54:08.952Z,54.00
2019-05-10T06:56:37.690Z,54.00
2019-05-10T06:59:13.342Z,54.00
2019-05-10T07:01:38.190Z,53.70
2019-05-10T07:04:07.250Z,53.80
2019-05-10T07:06:36.039Z,53.90
2019-05-10T07:09:06.623Z,53.70
2019-05-10T07:11:37.034Z,54.10
2019-05-10T07:14:05.890Z,53.90
2019-05-10T07:16:35.790Z,54.00
2019-05-10T07:19:06.383Z,53.80
2019-05-10T07:21:39.113Z,53.80
2019-05-10T07:24:05.535Z,54.00
2019-05-10T07:26:34.217Z,54.00
2019-05-10T07:29:02.946Z,53.70
2019-05-10T07:31:31.634Z,53.70
2019-05-10T07:34:00.723Z,53.80
2019-05-10T07:36:30.626Z,53.90
2019-05-10T07:39:02.743Z,53.60
2019-05-10T07:41:30.569Z,53.60
2019-05-10T07:44:05.298Z,53.70
2019-05-10T07:46:29.761Z,53.80
2019-05-10T07:48:58.496Z,53.60
2019-05-10T07:51:28.677Z,53.40
2019-05-10T07:54:04.796Z,53.30
2019-05-10T07:56:28.122Z,53.20
2019-05-10T07:59:00.299Z,53.30
2019-05-10T08:01:32.157Z,53.20
2019-05-10T08:03:59.182Z,53.20
2019-05-10T08:06:31.974Z,52.60
2019-05-10T08:09:01.867Z,52.30
2019-05-10T08:11:29.250Z,52.70
2019-05-10T08:14:06.243Z,52.70
2019-05-10T08:16:29.042Z,52.60
2019-05-10T08:19:00.922Z,52.40
2019-05-10T08:21:28.592Z,52.00
2019-05-10T08:23:59.035Z,52.10
2019-05-10T08:26:27.782Z,51.80
2019-05-10T08:28:57.966Z,51.70
2019-05-10T08:31:33.848Z,51.80
2019-05-10T08:33:59.002Z,51.70
2019-05-10T08:36:28.057Z,51.90
2019-05-10T08:39:06.999Z,51.80
2019-05-10T08:41:27.194Z,51.90
2019-05-10T08:43:55.866Z,51.80
2019-05-10T08:46:34.823Z,51.70
2019-05-10T08:48:55.090Z,52.10
2019-05-10T08:51:23.805Z,51.80
2019-05-10T08:53:57.967Z,51.80
2019-05-10T08:56:24.157Z,51.80
2019-05-10T08:58:53.818Z,51.70
2019-05-10T09:01:29.959Z,51.80
2019-05-10T09:03:59.345Z,51.70
2019-05-10T09:06:24.904Z,52.00
2019-05-10T09:09:01.463Z,51.60
2019-05-10T09:11:24.209Z,51.60
2019-05-10T09:13:53.893Z,51.00
2019-05-10T09:16:29.149Z,51.00
2019-05-10T09:18:55.071Z,50.60
2019-05-10T09:21:23.747Z,50.50
2019-05-10T09:24:01.040Z,50.00
2019-05-10T09:26:22.909Z,49.50
2019-05-10T09:28:55.498Z,49.50
2019-05-10T09:31:25.721Z,49.20
2019-05-10T09:33:54.464Z,49.10
2019-05-10T09:36:31.256Z,49.10
2019-05-10T09:38:55.351Z,49.30
2019-05-10T09:41:27.819Z,48.80
2019-05-10T09:43:54.834Z,48.90
2019-05-10T09:46:23.540Z,48.90
2019-05-10T09:48:54.688Z,48.50
2019-05-10T09:51:27.880Z,48.40
2019-05-10T09:53:53.167Z,48.10
2019-05-10T09:56:21.875Z,47.90
2019-05-10T09:58:50.591Z,47.60
2019-05-10T10:01:21.791Z,47.70
2019-05-10T10:03:49.971Z,47.00
2019-05-10T10:06:20.353Z,46.60
2019-05-10T10:08:53.189Z,46.00
2019-05-10T10:11:19.589Z,45.60
2019-05-10T10:13:58.598Z,44.90
2019-05-10T10:16:19.261Z,44.90
2019-05-10T10:18:48.066Z,45.20
2019-05-10T10:21:18.988Z,44.90
2019-05-10T10:23:47.462Z,44.70
2019-05-10T10:26:20.391Z,44.60
2019-05-10T10:28:49.700Z,44.60
2019-05-10T10:31:28.880Z,44.10
2019-05-10T10:33:57.009Z,44.10
2019-05-10T10:36:17.969Z,44.30
2019-05-10T10:38:49.459Z,44.00
2019-05-10T10:41:25.654Z,43.40
2019-05-10T10:43:48.391Z,43.20
2019-05-10T10:46:19.736Z,43.30
2019-05-10T10:48:49.047Z,43.20
2019-05-10T10:51:18.424Z,43.60
2019-05-10T10:53:47.215Z,43.30
2019-05-10T10:56:17.609Z,43.30
2019-05-10T10:58:49.633Z,43.30
2019-05-10T11:01:24.675Z,43.60
2019-05-10T11:03:49.042Z,43.70
2019-05-10T11:06:18.009Z,43.80
2019-05-10T11:08:46.722Z,43.10
2019-05-10T11:11:15.735Z,43.50
2019-05-10T11:13:46.301Z,44.10
2019-05-10T11:16:15.674Z,43.50
2019-05-10T11:18:44.735Z,43.50
2019-05-10T11:21:13.420Z,43.30
2019-05-10T11:23:42.233Z,43.30
2019-05-10T11:26:11.215Z,43.30
2019-05-10T11:28:44.239Z,43.90
2019-05-10T11:31:11.346Z,43.90
2019-05-10T11:33:41.473Z,43.80
2019-05-10T11:36:11.417Z,43.60
2019-05-10T11:38:42.041Z,44.20
2019-05-10T11:41:13.587Z,44.00
2019-05-10T11:43:41.899Z,44.30
2019-05-10T11:46:11.735Z,43.70
2019-05-10T11:48:42.221Z,44.10
2019-05-10T11:51:17.232Z,43.60
2019-05-10T11:53:41.881Z,43.50
2019-05-10T11:56:14.119Z,43.90
2019-05-10T11:59:04.404Z,43.50
2019-05-10T12:01:19.059Z,43.60
2019-05-10T12:03:43.759Z,44.00
2019-05-10T12:06:12.680Z,43.80
2019-05-10T12:08:41.971Z,44.10
2019-05-10T12:11:27.254Z,43.80
2019-05-10T12:13:41.370Z,43.60
2019-05-10T12:16:12.347Z,43.50
2019-05-10T12:18:46.508Z,43.90
2019-05-10T12:21:11.392Z,44.00
2019-05-10T12:23:49.416Z,44.00
2019-05-10T12:28:41.009Z,43.60
2019-05-10T12:31:15.186Z,43.70
2019-05-10T12:33:42.972Z,44.20
2019-05-10T12:36:22.110Z,44.30
2019-05-10T12:38:41.361Z,44.60
2019-05-10T12:41:10.054Z,45.30
2019-05-10T12:43:43.155Z,45.80
2019-05-10T12:46:10.475Z,46.40
2019-05-10T12:48:39.496Z,46.50
2019-05-10T12:51:11.888Z,46.90
2019-05-10T12:53:44.596Z,47.00
2019-05-10T12:56:09.163Z,47.10
2019-05-10T12:58:37.879Z,47.30
2019-05-10T13:01:06.684Z,47.40
2019-05-10T13:03:35.395Z,47.50
2019-05-10T13:06:04.261Z,47.40
2019-05-10T13:08:33.022Z,47.10
2019-05-10T13:11:01.703Z,47.40
2019-05-10T13:13:30.416Z,47.20
2019-05-10T13:16:03.482Z,47.30
2019-05-10T13:21:00.002Z,47.20
2019-05-10T13:23:28.759Z,47.40
2019-05-10T13:25:57.423Z,46.80
2019-05-10T13:28:26.113Z,47.00
2019-05-10T13:30:59.688Z,47.00
2019-05-10T13:33:28.861Z,46.90
2019-05-10T13:35:56.722Z,47.20
2019-05-10T13:38:26.071Z,47.70
2019-05-10T13:40:54.748Z,47.50
2019-05-10T13:43:26.545Z,47.50
2019-05-10T13:45:54.159Z,47.50
2019-05-10T13:48:26.177Z,47.00
2019-05-10T13:50:53.243Z,47.40
2019-05-10T13:53:23.257Z,47.30
2019-05-10T13:55:52.089Z,46.40
2019-05-10T13:58:20.765Z,45.10
2019-05-10T14:00:49.508Z,44.90
2019-05-10T14:03:18.281Z,44.90
2019-05-10T14:05:46.953Z,44.80
2019-05-10T14:08:15.630Z,44.60
2019-05-10T14:10:44.519Z,44.70
2019-05-10T14:13:16.666Z,44.80
2019-05-10T14:15:43.606Z,44.80
2019-05-10T14:18:12.348Z,44.20
2019-05-10T14:20:41.243Z,43.80
2019-05-10T14:23:09.947Z,43.80
2019-05-10T14:25:39.172Z,44.10
2019-05-10T14:28:09.625Z,43.50
2019-05-10T14:30:38.732Z,42.90
2019-05-10T14:33:08.630Z,43.00
2019-05-10T14:35:37.817Z,42.50
2019-05-10T14:38:08.413Z,42.90
2019-05-10T14:40:38.095Z,42.50
2019-05-10T14:43:06.971Z,42.10
2019-05-10T14:45:35.657Z,42.50
2019-05-10T14:48:04.652Z,42.10
2019-05-10T14:50:33.358Z,42.10
2019-05-10T14:53:02.057Z,41.80
2019-05-10T14:55:34.689Z,41.40
2019-05-10T14:58:01.314Z,41.60
2019-05-10T15:00:30.083Z,41.10
2019-05-10T15:03:02.164Z,40.90
2019-05-10T15:05:29.216Z,41.60
2019-05-10T15:07:57.912Z,41.50
2019-05-10T15:10:26.609Z,41.40
2019-05-10T15:12:55.349Z,41.60
2019-05-10T15:15:24.189Z,41.10
2019-05-10T15:17:55.118Z,41.30
2019-05-10T15:20:23.379Z,40.70
2019-05-10T15:22:52.199Z,40.90
2019-05-10T15:25:20.882Z,41.50
2019-05-10T15:27:49.606Z,41.90
2019-05-10T15:30:18.296Z,42.90
2019-05-10T15:32:46.976Z,44.40
2019-05-10T15:35:15.717Z,44.30
2019-05-10T15:37:46.389Z,44.80
2019-05-10T15:40:15.165Z,45.30
2019-05-10T15:42:43.870Z,45.60
2019-05-10T15:45:14.457Z,45.70
2019-05-10T15:47:51.282Z,46.50
2019-05-10T15:50:14.007Z,46.90
2019-05-10T15:52:46.514Z,46.80
2019-05-10T15:55:17.092Z,46.10
2019-05-10T15:57:44.051Z,46.10
2019-05-10T16:00:12.766Z,45.60
2019-05-10T16:02:41.456Z,45.60
2019-05-10T16:05:23.896Z,45.60
2019-05-10T16:07:40.667Z,47.20
2019-05-10T16:10:09.753Z,45.90
2019-05-10T16:12:43.052Z,46.30
2019-05-10T16:15:13.916Z,45.80
2019-05-10T16:17:39.808Z,45.70
2019-05-10T16:20:09.409Z,46.00
2019-05-10T16:22:38.112Z,45.40
2019-05-10T16:25:07.397Z,45.90
2019-05-10T16:27:40.465Z,46.00
2019-05-10T16:30:11.886Z,46.30
2019-05-10T16:32:38.369Z,46.10
2019-05-10T16:35:12.593Z,46.00
2019-05-10T16:37:37.990Z,46.10
2019-05-10T16:40:07.777Z,46.00
2019-05-10T16:42:36.482Z,46.20
2019-05-10T16:45:06.748Z,46.40
2019-05-10T16:47:35.471Z,46.50
2019-05-10T16:50:06.120Z,46.50
2019-05-10T16:52:34.821Z,45.90
2019-05-10T16:55:05.466Z,45.40
2019-05-10T16:57:37.321Z,45.30
2019-05-10T17:00:10.353Z,45.40
2019-05-10T17:02:42.237Z,45.10
2019-05-10T17:05:15.330Z,45.40
2019-05-10T17:07:40.775Z,45.20
2019-05-10T17:10:09.778Z,45.30
2019-05-10T17:12:38.478Z,45.50
2019-05-10T17:15:07.661Z,45.70
2019-05-10T17:17:37.177Z,46.20
2019-05-10T17:20:14.042Z,46.80
2019-05-10T17:22:39.300Z,46.60
2019-05-10T17:25:08.967Z,46.50
2019-05-10T17:27:37.750Z,46.80
2019-05-10T17:30:07.839Z,46.90
2019-05-10T17:32:36.539Z,47.20
2019-05-10T17:35:07.711Z,47.50
2019-05-10T17:37:37.562Z,47.60
2019-05-10T17:40:10.036Z,47.40
2019-05-10T17:42:41.095Z,47.50
2019-05-10T17:45:09.647Z,47.50
2019-05-10T17:47:38.420Z,47.50
2019-05-10T17:50:09.180Z,47.20
2019-05-10T17:52:37.867Z,47.30
2019-05-10T17:55:16.004Z,47.60
2019-05-10T17:57:39.979Z,48.10
2019-05-10T18:00:11.118Z,47.90
2019-05-10T18:02:40.103Z,47.90
2019-05-10T18:05:09.301Z,47.70
2019-05-10T18:07:38.063Z,47.70
2019-05-10T18:10:08.343Z,47.80
2019-05-10T18:12:37.069Z,47.80
2019-05-10T18:15:09.046Z,48.00
2019-05-10T18:17:37.752Z,48.30
2019-05-10T18:20:07.821Z,48.60
2019-05-10T18:22:43.303Z,48.80
2019-05-10T18:25:07.471Z,48.80
2019-05-10T18:27:36.336Z,48.80
2019-05-10T18:30:06.728Z,48.90
2019-05-10T18:32:37.267Z,49.10
2019-05-10T18:35:14.406Z,49.10
2019-05-10T18:37:38.417Z,49.40
2019-05-10T18:40:07.954Z,49.70
2019-05-10T18:42:36.849Z,49.60
2019-05-10T18:45:08.646Z,49.70
2019-05-10T18:47:37.394Z,49.50
2019-05-10T18:50:06.475Z,49.60
2019-05-10T18:52:35.181Z,49.60
2019-05-10T18:55:04.623Z,49.50
2019-05-10T18:57:33.385Z,49.30
2019-05-10T19:00:03.091Z,49.60
2019-05-10T19:02:32.023Z,49.60
2019-05-10T19:05:00.804Z,49.40
2019-05-10T19:07:29.487Z,49.50
2019-05-10T19:09:58.581Z,49.40
2019-05-10T19:12:27.672Z,49.50
2019-05-10T19:14:56.542Z,49.10
2019-05-10T19:17:25.590Z,49.10
2019-05-10T19:19:55.175Z,49.10
2019-05-10T19:22:23.876Z,49.10
2019-05-10T19:24:56.755Z,49.20
2019-05-10T19:27:25.251Z,49.20
2019-05-10T19:29:53.702Z,49.30
2019-05-10T19:32:22.547Z,49.20
2019-05-10T19:34:57.180Z,49.10
2019-05-10T19:37:41.083Z,49.40
2019-05-10T19:40:10.101Z,49.30
2019-05-10T19:42:43.053Z,49.00
2019-05-10T19:45:12.915Z,49.00
2019-05-10T19:47:40.403Z,49.30
2019-05-10T19:50:09.752Z,49.00
2019-05-10T19:52:38.658Z,49.10
2019-05-10T19:55:07.747Z,49.00
2019-05-10T19:57:38.162Z,49.10
2019-05-10T20:00:08.466Z,48.90
2019-05-10T20:02:37.163Z,49.00
2019-05-10T20:05:06.190Z,49.20
2019-05-10T20:07:45.141Z,49.10
2019-05-10T20:10:07.846Z,49.20
2019-05-10T20:12:37.132Z,49.00
2019-05-10T20:15:07.957Z,49.10
2019-05-10T20:17:36.746Z,49.30
2019-05-10T20:20:09.091Z,49.10
2019-05-10T20:22:37.790Z,49.10
2019-05-10T20:25:07.247Z,49.10
2019-05-10T20:27:36.013Z,49.20
2019-05-10T20:30:06.195Z,49.40
2019-05-10T20:32:36.635Z,49.30
2019-05-10T20:35:08.012Z,49.20
2019-05-10T20:37:36.707Z,49.30
2019-05-10T20:40:08.230Z,49.10
2019-05-10T20:42:36.921Z,49.50
2019-05-10T20:45:08.393Z,49.40
2019-05-10T20:47:38.095Z,49.30
2019-05-10T20:50:08.249Z,49.40
2019-05-10T20:52:36.964Z,49.30
2019-05-10T20:55:06.408Z,49.20
2019-05-10T20:57:37.638Z,49.20
2019-05-10T21:00:07.042Z,49.40
2019-05-10T21:02:35.782Z,49.50
2019-05-10T21:05:06.504Z,49.40
2019-05-10T21:07:38.425Z,49.40
2019-05-10T21:10:07.398Z,49.50
2019-05-10T21:12:36.489Z,49.60
2019-05-10T21:15:07.558Z,49.40
2019-05-10T21:17:36.333Z,49.30
2019-05-10T21:20:07.741Z,49.30
2019-05-10T21:22:36.686Z,49.60
2019-05-10T21:25:09.673Z,49.30
2019-05-10T21:27:38.490Z,49.50
2019-05-10T21:30:08.922Z,49.40
2019-05-10T21:32:37.659Z,49.40
2019-05-10T21:35:06.326Z,49.50
2019-05-10T21:37:35.024Z,50.00
2019-05-10T21:40:07.051Z,49.50
2019-05-10T21:42:35.727Z,49.90
2019-05-10T21:45:04.850Z,49.50
2019-05-10T21:47:33.845Z,49.50
2019-05-10T21:50:02.576Z,49.80
2019-05-10T21:52:31.257Z,49.70
2019-05-10T21:55:00.115Z,49.60
2019-05-10T21:57:28.928Z,49.90
2019-05-10T21:59:57.629Z,49.60
2019-05-10T22:02:26.390Z,49.70
2019-05-10T22:04:55.072Z,49.90
2019-05-10T22:07:23.792Z,50.40
2019-05-10T22:09:52.534Z,50.00
2019-05-10T22:12:21.574Z,50.00
2019-05-10T22:14:50.334Z,50.00
2019-05-10T22:17:20.234Z,50.00
2019-05-10T22:19:48.911Z,50.20
2019-05-10T22:22:17.709Z,50.00
2019-05-10T22:24:48.273Z,50.20
2019-05-10T22:27:17.009Z,50.40
2019-05-10T22:29:45.701Z,50.40
2019-05-10T22:32:14.360Z,50.30
2019-05-10T22:34:43.099Z,50.20
2019-05-10T22:37:11.950Z,50.10
2019-05-10T22:39:40.630Z,50.20
2019-05-10T22:42:09.350Z,50.10
2019-05-10T22:44:38.067Z,50.00
2019-05-10T22:47:06.984Z,50.20
2019-05-10T22:49:35.672Z,50.20
2019-05-10T22:52:04.432Z,49.90
2019-05-10T22:54:33.108Z,49.90
2019-05-10T22:57:01.830Z,50.20
2019-05-10T22:59:30.588Z,50.00
2019-05-10T23:01:59.285Z,49.90
2019-05-10T23:04:27.982Z,50.30
2019-05-10T23:06:56.690Z,50.20
2019-05-10T23:09:25.444Z,50.30
2019-05-10T23:11:54.180Z,50.40
2019-05-10T23:14:22.938Z,50.80
2019-05-10T23:16:51.638Z,50.70
2019-05-10T23:19:20.485Z,50.80
2019-05-10T23:21:49.156Z,50.90
2019-05-10T23:24:17.869Z,51.10
2019-05-10T23:26:46.620Z,50.80
2019-05-10T23:29:15.318Z,50.90
2019-05-10T23:31:44.019Z,51.00
2019-05-10T23:34:12.998Z,51.00
2019-05-10T23:36:41.797Z,51.10
2019-05-10T23:39:10.523Z,51.00
2019-05-10T23:41:39.216Z,51.00
2019-05-10T23:44:07.922Z,51.10
2019-05-10T23:46:36.629Z,51.10
2019-05-10T23:49:05.326Z,51.10
2019-05-10T23:51:34.315Z,50.90
2019-05-10T23:54:03.033Z,51.00
2019-05-10T23:56:31.771Z,51.10
2019-05-10T23:59:00.581Z,50.90
